createdAt,value
2022-10-19T00:02:17.954Z,3.38
2022-10-19T00:04:50.499Z,3.25
2022-10-19T00:07:22.667Z,3.63
2022-10-19T00:09:56.965Z,3.22
2022-10-19T00:12:29.047Z,3.22
2022-10-19T00:15:00.754Z,2.88
2022-10-19T00:17:33.155Z,2.95
2022-10-19T00:20:05.229Z,3.50
2022-10-19T00:22:37.268Z,3.33
2022-10-19T00:25:12.709Z,3.65
2022-10-19T00:27:44.775Z,3.67
2022-10-19T00:30:16.487Z,2.80
2022-10-19T00:32:48.535Z,3.03
2022-10-19T00:35:20.247Z,2.65
2022-10-19T00:37:52.209Z,3.20
2022-10-19T00:40:26.607Z,3.10
2022-10-19T00:42:58.870Z,3.17
2022-10-19T00:45:35.005Z,3.35
2022-10-19T00:48:07.216Z,3.10
2022-10-19T00:50:39.625Z,3.10
2022-10-19T00:53:11.716Z,3.17
2022-10-19T00:55:46.836Z,3.38
2022-10-19T00:58:18.918Z,3.35
2022-10-19T01:01:16.308Z,3.40
2022-10-19T01:03:49.157Z,2.83
2022-10-19T01:06:21.768Z,3.47
2022-10-19T01:08:53.649Z,2.72
2022-10-19T01:11:44.075Z,2.75
2022-10-19T01:14:30.293Z,2.72
2022-10-19T01:17:12.676Z,2.60
2022-10-19T01:20:21.467Z,2.40
2022-10-19T01:23:10.834Z,2.10
2022-10-19T01:25:57.247Z,2.33
2022-10-19T01:28:47.663Z,2.40
2022-10-19T01:31:30.726Z,2.80
2022-10-19T01:34:10.114Z,2.78
2022-10-19T01:36:47.285Z,2.17
2022-10-19T01:39:39.443Z,2.35
2022-10-19T01:42:17.817Z,2.50
2022-10-19T01:44:55.625Z,2.50
2022-10-19T01:47:35.321Z,2.80
2022-10-19T01:50:14.025Z,2.65
2022-10-19T01:52:46.936Z,2.85
2022-10-19T01:55:21.748Z,2.85
2022-10-19T01:57:58.536Z,2.78
2022-10-19T02:00:32.457Z,2.75
2022-10-19T02:03:09.006Z,2.88
2022-10-19T02:05:42.405Z,2.78
2022-10-19T02:08:17.848Z,2.42
2022-10-19T02:10:50.807Z,2.78
2022-10-19T02:13:24.087Z,3.00
2022-10-19T02:15:59.936Z,2.78
2022-10-19T02:18:38.776Z,2.80
2022-10-19T02:21:15.096Z,2.45
2022-10-19T02:23:48.352Z,3.03
2022-10-19T02:26:22.737Z,2.40
2022-10-19T02:28:56.644Z,2.17
2022-10-19T02:31:29.476Z,2.33
2022-10-19T02:34:04.037Z,2.65
2022-10-19T02:36:35.427Z,2.35
2022-10-19T02:39:07.725Z,2.40
2022-10-19T02:41:45.796Z,2.30
2022-10-19T02:44:22.046Z,2.53
2022-10-19T02:46:57.876Z,2.40
2022-10-19T02:49:36.085Z,2.17
2022-10-19T02:52:09.775Z,2.25
2022-10-19T02:54:44.005Z,2.40
2022-10-19T02:57:20.537Z,2.40
2022-10-19T02:59:52.937Z,2.67
2022-10-19T03:02:24.567Z,2.00
2022-10-19T03:04:58.996Z,2.15
2022-10-19T03:07:30.708Z,2.45
2022-10-19T03:10:02.575Z,2.28
2022-10-19T03:12:34.026Z,2.40
2022-10-19T03:15:06.815Z,2.50
2022-10-19T03:17:38.717Z,2.42
2022-10-19T03:20:14.698Z,2.30
2022-10-19T03:22:46.602Z,2.47
2022-10-19T03:25:18.746Z,2.50
2022-10-19T03:27:51.006Z,2.72
2022-10-19T03:30:23.135Z,2.28
2022-10-19T03:32:54.838Z,2.20
2022-10-19T03:35:29.545Z,2.05
2022-10-19T03:38:01.218Z,2.03
2022-10-19T03:40:33.245Z,1.80
2022-10-19T03:43:04.928Z,1.88
2022-10-19T03:45:37.316Z,2.20
2022-10-19T03:48:09.708Z,2.10
2022-10-19T03:50:44.847Z,1.80
2022-10-19T03:53:16.537Z,2.13
2022-10-19T03:55:48.497Z,2.10
2022-10-19T03:58:20.387Z,1.85
2022-10-19T04:00:52.598Z,1.85
2022-10-19T04:03:24.385Z,1.90
2022-10-19T04:06:05.117Z,1.90
2022-10-19T04:08:37.135Z,1.80
2022-10-19T04:11:13.445Z,1.75
2022-10-19T04:13:45.146Z,1.70
2022-10-19T04:16:17.275Z,1.80
2022-10-19T04:18:49.293Z,1.58
2022-10-19T04:21:30.147Z,1.90
2022-10-19T04:24:03.967Z,1.73
2022-10-19T04:26:37.149Z,1.63
2022-10-19T04:29:09.303Z,1.70
2022-10-19T04:31:41.828Z,1.80
2022-10-19T04:34:13.668Z,1.23
2022-10-19T04:36:48.887Z,1.70
2022-10-19T04:39:20.924Z,1.55
2022-10-19T04:41:53.068Z,1.38
2022-10-19T04:44:25.079Z,1.20
2022-10-19T04:46:57.210Z,1.40
2022-10-19T04:49:29.125Z,1.30
2022-10-19T04:52:04.445Z,1.33
2022-10-19T04:54:36.309Z,1.35
2022-10-19T04:57:08.407Z,1.30
2022-10-19T04:59:40.347Z,1.25
2022-10-19T05:02:12.529Z,1.10
2022-10-19T05:04:45.242Z,1.35
2022-10-19T05:07:22.967Z,1.27
2022-10-19T05:09:54.826Z,1.30
2022-10-19T05:12:26.946Z,1.58
2022-10-19T05:14:58.807Z,1.35
2022-10-19T05:17:34.555Z,1.40
2022-10-19T05:20:06.805Z,1.70
2022-10-19T05:22:42.128Z,1.35
2022-10-19T05:25:13.905Z,1.40
2022-10-19T05:27:46.105Z,1.48
2022-10-19T05:30:17.886Z,1.25
2022-10-19T05:32:49.986Z,1.25
2022-10-19T05:35:22.693Z,1.80
2022-10-19T05:38:00.247Z,1.52
2022-10-19T05:40:32.087Z,1.33
2022-10-19T05:43:03.955Z,1.60
2022-10-19T05:45:35.387Z,1.45
2022-10-19T05:48:07.848Z,1.77
2022-10-19T05:50:39.326Z,1.35
2022-10-19T05:53:16.268Z,1.55
2022-10-19T05:55:47.748Z,1.90
2022-10-19T05:58:19.560Z,1.70
2022-10-19T06:00:55.581Z,1.50
2022-10-19T06:03:28.563Z,1.50
2022-10-19T06:06:00.749Z,1.70
2022-10-19T06:08:35.302Z,1.65
2022-10-19T06:11:11.601Z,1.90
2022-10-19T06:13:45.440Z,1.77
2022-10-19T06:16:18.899Z,1.60
2022-10-19T06:18:50.722Z,1.50
2022-10-19T06:21:25.044Z,1.45
2022-10-19T06:24:09.583Z,1.17
2022-10-19T06:26:41.043Z,1.30
2022-10-19T06:29:13.234Z,1.40
2022-10-19T06:31:47.003Z,1.25
2022-10-19T06:34:18.918Z,1.38
2022-10-19T06:36:50.340Z,1.60
2022-10-19T06:39:25.321Z,1.25
2022-10-19T06:41:56.820Z,1.40
2022-10-19T06:44:28.661Z,1.30
2022-10-19T06:47:00.081Z,1.42
2022-10-19T06:49:32.261Z,1.77
2022-10-19T06:52:06.183Z,1.58
2022-10-19T06:54:41.062Z,1.73
2022-10-19T06:57:12.940Z,1.80
2022-10-19T06:59:46.005Z,2.35
2022-10-19T07:02:20.245Z,2.05
2022-10-19T07:04:52.557Z,1.63
2022-10-19T07:07:24.442Z,1.63
2022-10-19T07:09:59.475Z,1.85
2022-10-19T07:12:31.355Z,1.70
2022-10-19T07:15:03.560Z,1.85
2022-10-19T07:17:35.676Z,1.70
2022-10-19T07:20:09.313Z,1.95
2022-10-19T07:22:41.114Z,1.42
2022-10-19T07:25:16.034Z,1.88
2022-10-19T07:27:47.992Z,1.55
2022-10-19T07:30:20.916Z,1.65
2022-10-19T07:33:07.120Z,1.50
2022-10-19T07:35:42.234Z,1.60
2022-10-19T07:38:14.774Z,1.70
2022-10-19T07:40:50.211Z,1.83
2022-10-19T07:43:22.490Z,1.73
2022-10-19T07:46:01.731Z,2.28
2022-10-19T07:48:34.260Z,1.60
2022-10-19T07:51:09.652Z,1.95
2022-10-19T07:53:44.055Z,1.67
2022-10-19T07:56:21.051Z,1.50
2022-10-19T07:58:54.251Z,1.70
2022-10-19T08:01:28.412Z,1.40
2022-10-19T08:06:55.173Z,1.38
2022-10-19T08:09:51.411Z,1.50
2022-10-19T08:12:22.594Z,1.50
2022-10-19T08:14:56.398Z,1.42
2022-10-19T08:17:28.998Z,1.50
2022-10-19T08:20:01.193Z,1.60
2022-10-19T08:22:34.007Z,1.80
2022-10-19T08:25:06.875Z,1.60
2022-10-19T08:27:42.117Z,1.40
2022-10-19T08:30:15.316Z,1.48
2022-10-19T08:32:47.955Z,1.73
2022-10-19T08:35:20.205Z,1.35
2022-10-19T08:37:54.449Z,1.33
2022-10-19T08:40:29.596Z,1.70
2022-10-19T08:43:12.896Z,1.38
2022-10-19T08:45:47.290Z,1.40
2022-10-19T08:48:28.578Z,1.55
2022-10-19T08:51:03.047Z,1.60
2022-10-19T08:53:43.862Z,1.77
2022-10-19T08:56:49.972Z,1.60
2022-10-19T08:59:36.141Z,1.30
2022-10-19T09:02:16.495Z,1.50
2022-10-19T09:04:53.640Z,1.60
2022-10-19T09:07:30.826Z,1.55
2022-10-19T09:10:12.737Z,1.70
2022-10-19T09:12:53.940Z,1.77
2022-10-19T09:15:37.975Z,1.35
2022-10-19T09:18:13.936Z,1.48
2022-10-19T09:20:50.418Z,1.75
2022-10-19T09:23:29.458Z,1.50
2022-10-19T09:26:01.975Z,1.60
2022-10-19T09:28:48.546Z,1.45
2022-10-19T09:31:31.834Z,1.70
2022-10-19T09:34:08.803Z,1.63
2022-10-19T09:36:51.742Z,1.80
2022-10-19T09:39:27.023Z,1.85
2022-10-19T09:42:08.243Z,1.35
2022-10-19T09:44:40.522Z,1.45
2022-10-19T09:47:33.116Z,1.52
2022-10-19T09:50:23.045Z,1.65
2022-10-19T09:52:56.603Z,1.40
2022-10-19T09:55:38.721Z,1.50
2022-10-19T09:58:20.516Z,1.50
2022-10-19T10:00:55.067Z,1.40
2022-10-19T10:03:35.358Z,1.35
2022-10-19T10:06:10.193Z,1.25
2022-10-19T10:08:48.078Z,1.48
2022-10-19T10:11:27.375Z,1.48
2022-10-19T10:14:00.992Z,1.38
2022-10-19T10:16:33.897Z,1.00
2022-10-19T10:19:10.838Z,1.10
2022-10-19T10:21:52.738Z,1.10
2022-10-19T10:24:26.531Z,1.23
2022-10-19T10:27:00.464Z,1.10
2022-10-19T10:29:33.345Z,1.10
2022-10-19T10:32:08.193Z,1.00
2022-10-19T10:34:53.790Z,1.38
2022-10-19T10:37:32.904Z,1.27
2022-10-19T10:40:05.061Z,1.45
2022-10-19T10:42:40.915Z,0.90
2022-10-19T10:45:21.638Z,1.17
2022-10-19T10:47:53.082Z,0.90
2022-10-19T10:50:33.942Z,1.20
2022-10-19T10:53:09.466Z,0.98
2022-10-19T10:55:41.760Z,0.82
2022-10-19T10:58:25.415Z,0.90
2022-10-19T11:01:06.553Z,0.70
2022-10-19T11:03:42.223Z,0.70
2022-10-19T11:06:20.449Z,0.70
2022-10-19T11:08:58.239Z,0.60
2022-10-19T11:11:35.823Z,0.90
2022-10-19T11:14:30.504Z,0.80
2022-10-19T11:17:09.782Z,0.70
2022-10-19T11:19:45.705Z,0.70
2022-10-19T11:22:32.342Z,0.88
2022-10-19T11:25:23.426Z,0.90
2022-10-19T11:28:08.782Z,0.77
2022-10-19T11:30:51.383Z,1.15
2022-10-19T11:33:40.459Z,0.90
2022-10-19T11:36:21.839Z,0.90
2022-10-19T11:39:14.191Z,0.88
2022-10-19T11:41:58.293Z,0.85
2022-10-19T11:44:43.691Z,0.70
2022-10-19T11:47:36.611Z,1.08
2022-10-19T11:50:27.182Z,1.10
2022-10-19T11:53:10.849Z,1.00
2022-10-19T11:55:51.119Z,1.00
2022-10-19T11:58:41.372Z,1.00
2022-10-19T12:01:24.893Z,0.80
2022-10-19T12:04:26.375Z,0.80
2022-10-19T12:07:09.695Z,0.90
2022-10-19T12:09:51.486Z,1.00
2022-10-19T12:12:36.842Z,0.80
2022-10-19T12:15:26.989Z,1.10
2022-10-19T12:18:08.173Z,0.90
2022-10-19T12:20:46.471Z,1.20
2022-10-19T12:23:35.116Z,0.93
2022-10-19T12:26:10.662Z,0.90
2022-10-19T12:28:50.954Z,0.90
2022-10-19T12:31:24.877Z,0.70
2022-10-19T12:34:05.761Z,0.90
2022-10-19T12:36:46.353Z,1.05
2022-10-19T12:39:26.755Z,1.13
2022-10-19T12:42:10.832Z,0.93
2022-10-19T12:45:14.153Z,1.05
2022-10-19T12:48:19.833Z,1.20
2022-10-19T12:51:19.955Z,1.05
2022-10-19T12:53:53.194Z,1.45
2022-10-19T12:56:40.881Z,1.00
2022-10-19T12:59:26.355Z,1.23
2022-10-19T13:02:02.754Z,0.98
2022-10-19T13:04:40.351Z,0.85
2022-10-19T13:07:19.832Z,1.20
2022-10-19T13:09:52.670Z,0.85
2022-10-19T13:12:47.031Z,0.80
2022-10-19T13:16:06.806Z,0.90
2022-10-19T13:19:09.467Z,0.98
2022-10-19T13:21:51.080Z,0.80
2022-10-19T13:24:30.443Z,0.90
2022-10-19T13:27:30.472Z,1.10
2022-10-19T13:30:03.395Z,1.00
2022-10-19T13:32:40.334Z,0.93
2022-10-19T13:35:32.800Z,0.90
2022-10-19T13:38:28.071Z,0.90
2022-10-19T13:41:05.868Z,0.98
2022-10-19T13:43:41.787Z,0.90
2022-10-19T13:46:17.346Z,1.35
2022-10-19T13:49:14.592Z,1.10
2022-10-19T13:52:04.148Z,0.90
2022-10-19T13:54:55.551Z,0.90
2022-10-19T13:57:37.830Z,0.98
2022-10-19T14:00:19.307Z,0.90
2022-10-19T14:03:12.425Z,0.95
2022-10-19T14:06:09.746Z,0.80
2022-10-19T14:09:15.123Z,1.10
2022-10-19T14:11:50.622Z,0.95
2022-10-19T14:14:25.024Z,0.82
2022-10-19T14:17:03.074Z,1.02
2022-10-19T14:20:05.740Z,0.93
2022-10-19T14:22:39.091Z,0.93
2022-10-19T14:25:22.529Z,1.00
2022-10-19T14:28:01.565Z,1.00
2022-10-19T14:30:35.921Z,1.60
2022-10-19T14:33:12.203Z,1.20
2022-10-19T14:35:46.573Z,1.23
2022-10-19T14:38:24.644Z,1.23
2022-10-19T14:40:59.602Z,1.20
2022-10-19T14:43:34.171Z,0.88
2022-10-19T14:46:17.811Z,1.10
2022-10-19T14:48:51.295Z,1.30
2022-10-19T14:51:36.338Z,1.13
2022-10-19T14:54:11.015Z,1.48
2022-10-19T14:56:53.942Z,1.25
2022-10-19T14:59:31.438Z,1.30
2022-10-19T15:02:07.576Z,0.93
2022-10-19T15:04:42.140Z,1.20
2022-10-19T15:07:21.939Z,1.17
2022-10-19T15:09:57.873Z,1.10
2022-10-19T15:12:38.482Z,1.08
2022-10-19T15:15:13.547Z,0.98
2022-10-19T15:17:55.012Z,1.20
2022-10-19T15:20:30.188Z,2.10
2022-10-19T15:23:04.664Z,1.30
2022-10-19T15:25:38.584Z,1.60
2022-10-19T15:28:40.590Z,1.25
2022-10-19T15:31:20.471Z,1.40
2022-10-19T15:33:55.047Z,1.30
2022-10-19T15:36:28.784Z,1.23
2022-10-19T15:39:24.941Z,1.20
2022-10-19T15:41:58.225Z,1.30
2022-10-19T15:44:44.023Z,1.30
2022-10-19T15:47:27.188Z,1.30
2022-10-19T15:50:04.306Z,1.50
2022-10-19T15:52:37.025Z,1.20
2022-10-19T15:55:10.304Z,1.40
2022-10-19T15:57:42.624Z,1.50
2022-10-19T16:00:20.666Z,1.40
2022-10-19T16:02:53.124Z,1.00
2022-10-19T16:05:25.817Z,1.20
2022-10-19T16:07:58.658Z,1.30
2022-10-19T16:10:31.546Z,1.23
2022-10-19T16:13:03.753Z,1.35
2022-10-19T16:15:39.093Z,1.23
2022-10-19T16:18:14.551Z,1.42
2022-10-19T16:20:47.145Z,1.52
2022-10-19T16:26:11.950Z,1.50
2022-10-19T16:28:44.527Z,1.30
2022-10-19T16:31:20.519Z,1.52
2022-10-19T16:33:52.927Z,1.63
2022-10-19T16:36:41.027Z,1.60
2022-10-19T16:39:13.251Z,2.00
2022-10-19T16:41:46.821Z,2.00
2022-10-19T16:44:19.414Z,1.85
2022-10-19T16:46:54.692Z,2.90
2022-10-19T16:49:26.971Z,4.10
2022-10-19T16:52:01.001Z,4.30
2022-10-19T16:54:33.802Z,3.13
2022-10-19T16:57:09.586Z,2.72
2022-10-19T16:59:41.221Z,2.40
2022-10-19T17:02:15.563Z,2.70
2022-10-19T17:04:46.693Z,2.20
2022-10-19T17:07:18.738Z,2.50
2022-10-19T17:09:53.726Z,2.30
2022-10-19T17:12:26.409Z,2.67
2022-10-19T17:15:11.554Z,3.10
2022-10-19T17:17:51.646Z,3.05
2022-10-19T17:20:24.482Z,2.92
2022-10-19T17:22:55.974Z,2.55
2022-10-19T17:25:27.266Z,2.72
2022-10-19T17:27:58.733Z,2.70
2022-10-19T17:30:29.919Z,2.75
2022-10-19T17:33:03.912Z,3.05
2022-10-19T17:35:36.838Z,3.17
2022-10-19T17:38:08.460Z,2.60
2022-10-19T17:40:39.921Z,2.67
2022-10-19T17:43:11.545Z,2.53
2022-10-19T17:48:17.574Z,2.75
2022-10-19T17:50:58.317Z,2.60
2022-10-19T17:53:31.030Z,2.38
2022-10-19T17:56:03.975Z,2.20
2022-10-19T17:58:39.115Z,2.70
2022-10-19T18:01:12.223Z,2.60
2022-10-19T18:03:46.136Z,2.40
2022-10-19T18:06:20.120Z,2.63
2022-10-19T18:08:53.191Z,2.80
2022-10-19T18:11:29.398Z,2.85
2022-10-19T18:14:02.884Z,3.28
2022-10-19T18:16:36.033Z,3.42
2022-10-19T18:19:12.250Z,2.70
2022-10-19T18:21:46.874Z,3.30
2022-10-19T18:24:21.446Z,3.22
2022-10-19T18:26:53.987Z,3.30
2022-10-19T18:29:26.894Z,3.38
2022-10-19T18:31:58.030Z,3.15
2022-10-19T18:34:31.837Z,3.10
2022-10-19T18:37:02.719Z,3.30
2022-10-19T18:39:36.252Z,3.55
2022-10-19T18:42:19.684Z,3.72
2022-10-19T18:44:53.006Z,5.15
2022-10-19T18:47:31.103Z,4.70
2022-10-19T18:50:05.415Z,5.30
2022-10-19T18:52:45.220Z,4.78
2022-10-19T18:55:22.926Z,4.68
2022-10-19T18:57:54.407Z,4.47
2022-10-19T19:00:26.321Z,4.53
2022-10-19T19:02:58.534Z,4.10
2022-10-19T19:05:35.226Z,4.28
2022-10-19T19:08:07.145Z,4.15
2022-10-19T19:10:38.927Z,3.92
2022-10-19T19:13:10.468Z,4.03
2022-10-19T19:15:43.546Z,5.18
2022-10-19T19:21:21.474Z,3.50
2022-10-19T19:23:54.127Z,3.17
2022-10-19T19:26:30.767Z,3.10
2022-10-19T19:29:02.746Z,2.90
2022-10-19T19:31:34.806Z,2.45
2022-10-19T19:34:09.427Z,2.47
2022-10-19T19:36:48.173Z,2.05
2022-10-19T19:39:25.244Z,2.10
2022-10-19T19:41:57.665Z,1.80
2022-10-19T19:44:32.502Z,1.70
2022-10-19T19:47:04.922Z,2.00
2022-10-19T19:49:39.688Z,1.88
2022-10-19T19:52:14.130Z,2.00
2022-10-19T19:54:45.610Z,1.90
2022-10-19T19:57:18.218Z,2.08
2022-10-19T19:59:49.670Z,2.00
2022-10-19T20:02:21.468Z,2.30
2022-10-19T20:04:53.003Z,2.05
2022-10-19T20:07:27.769Z,2.35
2022-10-19T20:10:00.290Z,2.08
2022-10-19T20:12:32.408Z,2.42
2022-10-19T20:15:04.709Z,2.75
2022-10-19T20:17:37.434Z,2.00
2022-10-19T20:20:11.669Z,2.50
2022-10-19T20:22:49.428Z,2.65
2022-10-19T20:25:20.945Z,2.72
2022-10-19T20:27:54.322Z,2.63
2022-10-19T20:30:25.346Z,2.50
2022-10-19T20:32:58.922Z,2.60
2022-10-19T20:35:30.089Z,2.70
2022-10-19T20:38:04.485Z,2.45
2022-10-19T20:40:35.581Z,2.50
2022-10-19T20:43:06.886Z,2.67
2022-10-19T20:54:21.675Z,2.20
2022-10-19T20:56:54.555Z,2.30
2022-10-19T20:59:28.214Z,2.40
2022-10-19T21:02:00.939Z,2.42
2022-10-19T21:04:32.962Z,2.30
2022-10-19T21:07:05.336Z,2.45
2022-10-19T21:09:40.015Z,2.22
2022-10-19T21:12:14.465Z,2.42
2022-10-19T21:14:46.354Z,2.83
2022-10-19T21:17:18.612Z,2.40
2022-10-19T21:19:50.616Z,2.60
2022-10-19T21:22:22.954Z,3.22
2022-10-19T21:24:57.778Z,2.90
2022-10-19T21:27:30.215Z,3.10
2022-10-19T21:30:06.315Z,3.22
2022-10-19T21:32:38.656Z,3.05
2022-10-19T21:35:11.235Z,2.88
2022-10-19T21:37:49.254Z,2.92
2022-10-19T21:40:23.895Z,3.35
2022-10-19T21:42:56.493Z,3.35
2022-10-19T21:45:30.658Z,3.00
2022-10-19T21:48:03.438Z,3.10
2022-10-19T21:50:35.497Z,3.20
2022-10-19T21:53:07.794Z,3.40
2022-10-19T21:55:42.315Z,3.70
2022-10-19T21:58:14.619Z,3.70
2022-10-19T22:00:46.885Z,4.00
2022-10-19T22:03:21.447Z,4.38
2022-10-19T22:05:54.272Z,3.92
2022-10-19T22:08:26.698Z,3.50
2022-10-19T22:11:07.857Z,3.65
2022-10-19T22:13:40.376Z,4.10
2022-10-19T22:16:14.513Z,3.38
2022-10-19T22:18:47.273Z,5.40
2022-10-19T22:21:20.817Z,3.63
2022-10-19T22:23:57.533Z,3.85
2022-10-19T22:26:34.175Z,3.70
2022-10-19T22:29:08.176Z,3.50
2022-10-19T22:31:40.338Z,3.03
2022-10-19T22:34:14.494Z,3.10
2022-10-19T22:36:46.764Z,3.28
2022-10-19T22:39:19.557Z,3.35
2022-10-19T22:41:53.595Z,2.97
2022-10-19T22:44:25.635Z,3.30
2022-10-19T22:46:57.335Z,3.47
2022-10-19T22:49:29.514Z,3.33
2022-10-19T22:52:01.056Z,3.08
2022-10-19T22:54:32.875Z,2.95
2022-10-19T22:57:07.556Z,2.90
2022-10-19T22:59:39.615Z,3.58
2022-10-19T23:02:10.997Z,3.63
2022-10-19T23:04:42.775Z,3.08
2022-10-19T23:07:14.134Z,3.28
2022-10-19T23:09:45.937Z,3.33
2022-10-19T23:12:20.016Z,3.20
2022-10-19T23:14:51.813Z,3.15
2022-10-19T23:17:23.176Z,3.08
2022-10-19T23:19:55.134Z,3.40
2022-10-19T23:22:26.661Z,3.28
2022-10-19T23:24:58.513Z,3.67
2022-10-19T23:27:32.705Z,3.35
2022-10-19T23:30:05.235Z,3.40
2022-10-19T23:32:36.800Z,3.60
2022-10-19T23:35:10.316Z,3.65
2022-10-19T23:37:41.736Z,3.53
2022-10-19T23:40:28.735Z,3.20
2022-10-19T23:43:02.855Z,3.60
2022-10-19T23:45:34.595Z,3.67
2022-10-19T23:48:06.061Z,3.47
2022-10-19T23:50:37.973Z,3.80
2022-10-19T23:53:09.334Z,3.65
2022-10-19T23:55:41.375Z,3.85
2022-10-19T23:58:15.473Z,3.58
